Des Moines, IA (50311)

5:56 PM CDT on August 24, 2016 (GMT -0500)
South Merle Hay Road | | Change Station

Elev 944 ft 41.61 °N, 93.70 °W | Updated 2 minutes ago

Heavy Thunderstorms and Rain
Heavy Thunderstorm Rain Mist
79.4 °F
Feels Like 83 °F
N
-
Wind Variable Wind from North

Today
High -- | Low -- °F
--% Chance of Precip.
Yesterday
High -- | Low -- °F
Precip. -- in
Pressure 29.96 in
Visibility 3.0 miles
Clouds Scattered Clouds 3000 ft
Mostly Cloudy 4800 ft
Overcast 7500 ft
Heat Index 83 °F
Dew Point 74 °F
Humidity 83%
Rainfall Not available.
Snow Depth Not available.
6:33 AM 7:59 PM
Waning Gibbous, 52% visible
METAR KDSM 242254Z 20003KT 3SM +TSRA BR SCT030CB BKN048 OVC075 25/23 A2998 RMK AO2 LTG DSNT ALQDS RAB04 TSE22B23 SLP144 FRQ LTGICCCCG E-S TS E-S MOV E P0018 T02500228
Pressure 29.96 in
Visibility 3.0 miles
Clouds Scattered Clouds 3000 ft
Mostly Cloudy 4800 ft
Overcast 7500 ft
Heat Index 83 °F
Dew Point 74 °F
Humidity 83%
Rainfall Not available.
Snow Depth Not available.
6:33 AM 7:59 PM
Waning Gibbous, 52% visible
METAR KDSM 242254Z 20003KT 3SM +TSRA BR SCT030CB BKN048 OVC075 25/23 A2998 RMK AO2 LTG DSNT ALQDS RAB04 TSE22B23 SLP144 FRQ LTGICCCCG E-S TS E-S MOV E P0018 T02500228

10-Day Weather Forecast

Almanac

Astronomy

Aug. 24, 2016 Rise Set
Actual Time
Civil Twilight
Nautical Twilight
Astronomical Twilight
Moon
Length of Visible Light
Length of Day
Tomorrow will be .
, % of the Moon is Illuminated

Today's Extremes

State Highs State Lows

Community

WunderPhotos

Upload Photos

1,934,728 photos uploaded!

WunderBlog® & News

Nearby

Air Quality

  Air Quality AQ Index Pollutant
Not available.

Snow Depth

Station Depth Elevation

Earthquake Activity

City Distance Mag. Time & Date
Minimum magnitude displayed is 2.5.

Coastal Water Temperatures

Place Temperature

Stations

Nearby Weather Stations

Station Location Temp. Windchill Dew Point Humidity Wind Precip. Elev Updated Type
                   

Watches & Warnings

There are currently no watches in effect.